createdAt,value
2023-03-19T00:02:17.151Z,13.63
2023-03-19T00:04:46.194Z,15.73
2023-03-19T00:07:14.175Z,14.40
2023-03-19T00:09:41.829Z,16.05
2023-03-19T00:12:09.481Z,15.80
2023-03-19T00:14:36.759Z,14.50
2023-03-19T00:17:04.150Z,13.65
2023-03-19T00:19:31.522Z,15.55
2023-03-19T00:21:58.920Z,13.90
2023-03-19T00:24:26.307Z,11.35
2023-03-19T00:26:53.788Z,14.05
2023-03-19T00:29:21.707Z,12.98
2023-03-19T00:31:49.136Z,14.27
2023-03-19T00:34:19.548Z,11.43
2023-03-19T00:36:49.018Z,13.10
2023-03-19T00:39:16.504Z,13.00
2023-03-19T00:41:50.455Z,12.00
2023-03-19T00:44:19.199Z,12.35
2023-03-19T00:46:46.989Z,14.23
2023-03-19T00:49:14.314Z,11.85
2023-03-19T00:51:44.010Z,13.90
2023-03-19T00:54:12.275Z,13.40
2023-03-19T00:56:39.602Z,14.18
2023-03-19T00:59:06.990Z,16.38
2023-03-19T01:01:34.668Z,16.40
2023-03-19T01:04:02.839Z,16.92
2023-03-19T01:06:30.364Z,27.92
2023-03-19T01:08:57.652Z,14.88
2023-03-19T01:11:26.276Z,18.30
2023-03-19T01:13:54.076Z,18.67
2023-03-19T01:16:21.442Z,20.20
2023-03-19T01:18:48.767Z,20.65
2023-03-19T01:21:16.826Z,19.02
2023-03-19T01:23:49.402Z,25.17
2023-03-19T01:26:16.756Z,20.60
2023-03-19T01:28:44.859Z,24.85
2023-03-19T01:31:13.107Z,22.83
2023-03-19T01:34:15.641Z,23.30
2023-03-19T01:36:50.504Z,26.55
2023-03-19T01:39:23.175Z,24.70
2023-03-19T01:41:50.806Z,25.55
2023-03-19T01:44:45.042Z,27.80
2023-03-19T01:47:50.582Z,25.73
2023-03-19T01:50:29.594Z,28.38
2023-03-19T01:53:16.475Z,25.60
2023-03-19T01:56:03.645Z,30.77
2023-03-19T01:58:53.863Z,29.55
2023-03-19T02:01:39.249Z,29.40
2023-03-19T02:04:07.863Z,34.78
2023-03-19T02:06:37.716Z,32.13
2023-03-19T02:09:05.394Z,31.48
2023-03-19T02:11:33.284Z,32.13
2023-03-19T02:14:00.767Z,31.52
2023-03-19T02:16:28.152Z,29.63
2023-03-19T02:18:57.145Z,34.15
2023-03-19T02:21:24.424Z,29.52
2023-03-19T02:23:58.603Z,32.78
2023-03-19T02:26:43.328Z,32.38
2023-03-19T02:29:10.923Z,33.25
2023-03-19T02:31:38.433Z,34.20
2023-03-19T02:34:21.679Z,28.45
2023-03-19T02:36:55.085Z,33.80
2023-03-19T02:39:28.653Z,26.85
2023-03-19T02:41:57.599Z,36.15
2023-03-19T02:44:27.070Z,32.92
2023-03-19T02:46:54.667Z,32.72
2023-03-19T02:49:22.001Z,36.58
2023-03-19T02:51:49.398Z,34.28
2023-03-19T02:54:16.725Z,34.50
2023-03-19T02:56:43.990Z,32.95
2023-03-19T02:59:11.254Z,32.88
2023-03-19T03:01:39.077Z,30.95
2023-03-19T03:04:06.517Z,29.52
2023-03-19T03:06:33.838Z,35.38
2023-03-19T03:09:03.618Z,35.78
2023-03-19T03:11:31.095Z,32.03
2023-03-19T03:13:58.383Z,31.25
2023-03-19T03:16:27.651Z,33.42
2023-03-19T03:18:55.075Z,31.77
2023-03-19T03:21:22.391Z,29.60
2023-03-19T03:23:49.966Z,35.80
2023-03-19T03:26:17.336Z,32.45
2023-03-19T03:28:44.789Z,34.50
2023-03-19T03:31:12.198Z,34.05
2023-03-19T03:33:40.155Z,33.05
2023-03-19T03:36:08.465Z,39.78
2023-03-19T03:38:35.946Z,43.55
2023-03-19T03:41:03.248Z,37.20
2023-03-19T03:43:30.731Z,38.65
2023-03-19T03:45:59.294Z,41.83
2023-03-19T03:48:27.296Z,37.28
2023-03-19T03:50:54.826Z,36.72
2023-03-19T03:53:26.540Z,43.38
2023-03-19T03:55:53.837Z,35.67
2023-03-19T03:58:24.919Z,37.90
2023-03-19T04:00:52.477Z,39.75
2023-03-19T04:03:19.924Z,36.70
2023-03-19T04:05:47.309Z,36.03
2023-03-19T04:08:14.848Z,42.40
2023-03-19T04:10:43.779Z,37.50
2023-03-19T04:13:11.648Z,39.17
2023-03-19T04:15:39.568Z,38.70
2023-03-19T04:18:06.984Z,38.80
2023-03-19T04:20:34.685Z,48.22
2023-03-19T04:23:02.223Z,39.45
2023-03-19T04:25:30.524Z,43.92
2023-03-19T04:27:58.508Z,45.55
2023-03-19T04:30:28.306Z,44.92
2023-03-19T04:32:56.874Z,44.80
2023-03-19T04:35:24.352Z,47.83
2023-03-19T04:37:51.682Z,43.83
2023-03-19T04:40:21.240Z,38.08
2023-03-19T04:42:50.111Z,44.42
2023-03-19T04:45:37.772Z,45.75
2023-03-19T04:48:06.970Z,43.35
2023-03-19T04:50:35.607Z,50.85
2023-03-19T04:53:04.143Z,50.08
2023-03-19T04:55:31.608Z,48.35
2023-03-19T04:58:05.218Z,46.75
2023-03-19T05:00:35.432Z,49.67
2023-03-19T05:03:03.278Z,51.80
2023-03-19T05:08:01.128Z,57.67
2023-03-19T05:10:29.139Z,59.13
2023-03-19T05:12:57.267Z,68.05
2023-03-19T05:15:24.913Z,70.65
2023-03-19T05:18:02.801Z,63.03
2023-03-19T05:20:36.079Z,64.97
2023-03-19T05:23:07.485Z,65.47
2023-03-19T05:25:42.860Z,74.55
2023-03-19T05:28:13.110Z,70.32
2023-03-19T05:30:41.422Z,79.47
2023-03-19T05:33:17.592Z,72.15
2023-03-19T05:35:47.083Z,85.13
2023-03-19T05:38:27.108Z,71.90
2023-03-19T05:41:04.877Z,77.55
2023-03-19T05:43:41.777Z,81.70
2023-03-19T05:46:14.580Z,78.18
2023-03-19T05:48:42.241Z,81.57
2023-03-19T05:51:10.121Z,87.20
2023-03-19T05:53:41.725Z,80.80
2023-03-19T05:56:30.873Z,85.43
2023-03-19T05:59:21.066Z,90.60
2023-03-19T06:02:00.876Z,88.60
2023-03-19T06:04:28.939Z,90.43
2023-03-19T06:06:56.515Z,84.88
2023-03-19T06:09:24.373Z,85.72
2023-03-19T06:11:55.942Z,85.20
2023-03-19T06:14:41.727Z,89.03
2023-03-19T06:17:32.013Z,88.20
2023-03-19T06:20:04.415Z,91.63
2023-03-19T06:22:31.795Z,98.35
2023-03-19T06:24:59.241Z,91.40
2023-03-19T06:27:27.072Z,104.57
2023-03-19T06:30:03.436Z,98.05
2023-03-19T06:32:33.592Z,100.95
2023-03-19T06:35:06.516Z,110.13
2023-03-19T06:37:34.063Z,103.75
2023-03-19T06:40:01.499Z,100.78
2023-03-19T06:42:28.834Z,101.95
2023-03-19T06:44:56.448Z,101.53
2023-03-19T06:47:23.728Z,88.57
2023-03-19T06:49:51.478Z,97.60
2023-03-19T06:52:18.817Z,86.93
2023-03-19T06:54:46.548Z,90.97
2023-03-19T06:57:13.802Z,81.72
2023-03-19T06:59:41.118Z,91.80
2023-03-19T07:02:10.558Z,104.60
2023-03-19T07:04:37.828Z,91.38
2023-03-19T07:07:05.999Z,92.95
2023-03-19T07:09:33.434Z,90.95
2023-03-19T07:12:00.830Z,90.35
2023-03-19T07:14:30.874Z,87.30
2023-03-19T07:16:58.370Z,97.28
2023-03-19T07:19:25.698Z,106.05
2023-03-19T07:21:52.994Z,90.43
2023-03-19T07:24:20.411Z,103.63
2023-03-19T07:26:47.853Z,104.30
2023-03-19T07:29:15.643Z,109.03
2023-03-19T07:31:43.028Z,93.20
2023-03-19T07:34:10.395Z,99.05
2023-03-19T07:36:37.714Z,86.47
2023-03-19T07:39:04.998Z,93.20
2023-03-19T07:41:32.320Z,89.85
2023-03-19T07:43:59.719Z,77.25
2023-03-19T07:46:27.051Z,79.57
2023-03-19T07:48:54.588Z,86.60
2023-03-19T07:51:22.041Z,75.03
2023-03-19T07:53:49.373Z,69.55
2023-03-19T07:56:16.628Z,69.95
2023-03-19T07:58:43.936Z,74.43
2023-03-19T08:01:11.293Z,78.00
2023-03-19T08:03:39.497Z,68.35
2023-03-19T08:06:08.395Z,70.88
2023-03-19T08:08:35.882Z,70.40
2023-03-19T08:11:03.609Z,62.13
2023-03-19T08:13:31.687Z,71.00
2023-03-19T08:15:59.039Z,69.90
2023-03-19T08:18:27.131Z,66.30
2023-03-19T08:20:54.399Z,65.25
2023-03-19T08:23:21.761Z,70.38
2023-03-19T08:25:51.691Z,69.60
2023-03-19T08:28:19.066Z,73.90
2023-03-19T08:30:46.621Z,83.90
2023-03-19T08:33:14.181Z,74.47
2023-03-19T08:35:41.697Z,84.72
2023-03-19T08:38:09.021Z,81.55
2023-03-19T08:40:36.658Z,82.22
2023-03-19T08:43:04.206Z,92.50
2023-03-19T08:45:31.571Z,79.40
2023-03-19T08:47:58.894Z,86.20
2023-03-19T08:50:26.354Z,84.45
2023-03-19T08:52:53.909Z,82.88
2023-03-19T08:55:21.242Z,90.85
2023-03-19T08:57:48.574Z,97.97
2023-03-19T09:00:16.284Z,94.68
2023-03-19T09:02:43.571Z,100.47
2023-03-19T09:05:10.840Z,112.43
2023-03-19T09:07:38.206Z,98.38
2023-03-19T09:10:05.770Z,92.32
2023-03-19T09:12:33.422Z,94.05
2023-03-19T09:15:00.705Z,109.03
2023-03-19T09:17:27.998Z,101.20
2023-03-19T09:19:55.448Z,100.38
2023-03-19T09:22:22.745Z,91.25
2023-03-19T09:24:50.219Z,98.85
2023-03-19T09:27:19.180Z,92.70
2023-03-19T09:29:46.742Z,82.63
2023-03-19T09:32:14.123Z,87.70
2023-03-19T09:34:41.418Z,92.45
2023-03-19T09:37:11.668Z,90.00
2023-03-19T09:39:38.965Z,96.13
2023-03-19T09:42:06.933Z,103.55
2023-03-19T09:44:39.541Z,85.22
2023-03-19T09:47:10.034Z,96.20
2023-03-19T09:49:40.635Z,96.28
2023-03-19T09:52:09.610Z,93.47
2023-03-19T09:54:46.456Z,86.40
2023-03-19T09:57:15.166Z,89.30
2023-03-19T09:59:42.657Z,104.32
2023-03-19T10:02:13.182Z,92.75
2023-03-19T10:04:43.098Z,84.78
2023-03-19T10:07:23.063Z,92.43
2023-03-19T10:10:09.222Z,82.43
2023-03-19T10:12:40.136Z,81.72
2023-03-19T10:15:22.097Z,83.20
2023-03-19T10:17:55.687Z,81.00
2023-03-19T10:20:32.397Z,66.68
2023-03-19T10:23:11.422Z,64.28
2023-03-19T10:25:41.585Z,65.97
2023-03-19T10:28:16.917Z,66.07
2023-03-19T10:30:46.635Z,62.92
2023-03-19T10:33:20.775Z,58.88
2023-03-19T10:35:50.452Z,67.90
2023-03-19T10:38:27.384Z,66.10
2023-03-19T10:40:57.899Z,64.03
2023-03-19T10:43:26.582Z,60.53
2023-03-19T10:45:54.323Z,65.00
2023-03-19T10:48:27.969Z,52.65
2023-03-19T10:51:00.634Z,46.50
2023-03-19T10:53:30.868Z,46.88
2023-03-19T10:56:01.634Z,50.50
2023-03-19T10:58:30.713Z,44.20
2023-03-19T11:00:59.394Z,47.00
2023-03-19T11:03:26.734Z,59.88
2023-03-19T11:06:04.287Z,54.92
2023-03-19T11:08:36.099Z,63.65
2023-03-19T11:11:04.091Z,68.93
2023-03-19T11:13:35.005Z,70.40
2023-03-19T11:16:05.712Z,72.68
2023-03-19T11:18:38.498Z,72.20
2023-03-19T11:21:22.194Z,64.97
2023-03-19T11:23:53.362Z,60.63
2023-03-19T11:26:21.747Z,52.28
2023-03-19T11:28:52.734Z,61.87
2023-03-19T11:31:29.084Z,58.28
2023-03-19T11:34:15.520Z,63.50
2023-03-19T11:36:54.493Z,64.00
2023-03-19T11:39:30.509Z,57.17
2023-03-19T11:41:57.873Z,69.25
2023-03-19T11:44:30.996Z,71.05
2023-03-19T11:47:06.820Z,64.35
2023-03-19T11:52:08.543Z,77.40
2023-03-19T11:54:35.964Z,74.07
2023-03-19T11:57:09.404Z,64.72
2023-03-19T11:59:59.272Z,82.75
2023-03-19T12:02:39.011Z,68.80
2023-03-19T12:05:15.727Z,70.38
2023-03-19T12:07:47.178Z,66.15
2023-03-19T12:10:30.194Z,65.15
2023-03-19T12:13:05.366Z,74.03
2023-03-19T12:15:56.026Z,65.57
2023-03-19T12:18:29.711Z,64.22
2023-03-19T12:21:02.836Z,63.25
2023-03-19T12:23:39.948Z,66.60
2023-03-19T12:26:08.973Z,62.35
2023-03-19T12:28:41.379Z,58.63
2023-03-19T12:31:27.969Z,64.65
2023-03-19T12:33:58.914Z,69.63
2023-03-19T12:36:28.971Z,75.18
2023-03-19T12:38:59.559Z,67.20
2023-03-19T12:41:31.457Z,74.47
2023-03-19T12:43:58.879Z,72.85
2023-03-19T12:46:59.617Z,74.05
2023-03-19T12:49:32.730Z,77.22
2023-03-19T12:52:23.789Z,80.63
2023-03-19T12:54:57.448Z,80.28
2023-03-19T12:57:44.981Z,78.75
2023-03-19T13:00:22.339Z,75.13
2023-03-19T13:02:59.279Z,86.20
2023-03-19T13:05:33.187Z,75.78
2023-03-19T13:08:00.527Z,71.40
2023-03-19T13:10:28.394Z,71.20
2023-03-19T13:12:56.248Z,71.15
2023-03-19T13:15:23.607Z,62.90
2023-03-19T13:17:54.366Z,59.00
2023-03-19T13:20:26.271Z,55.20
2023-03-19T13:22:58.823Z,60.63
2023-03-19T13:25:32.291Z,56.80
2023-03-19T13:28:00.526Z,54.92
2023-03-19T13:30:28.051Z,57.25
2023-03-19T13:33:05.724Z,54.90
2023-03-19T13:35:45.001Z,57.70
2023-03-19T13:38:15.626Z,59.47
2023-03-19T13:40:44.217Z,58.20
2023-03-19T13:43:28.019Z,53.28
2023-03-19T13:46:08.230Z,47.45
2023-03-19T13:48:58.539Z,42.83
2023-03-19T13:51:30.629Z,38.23
2023-03-19T13:54:02.484Z,40.17
2023-03-19T13:56:30.912Z,44.97
2023-03-19T13:59:17.965Z,41.10
2023-03-19T14:01:47.794Z,43.35
2023-03-19T14:04:25.834Z,51.50
2023-03-19T14:06:55.960Z,52.30
2023-03-19T14:09:31.442Z,50.85
2023-03-19T14:12:12.285Z,47.78
2023-03-19T14:14:44.945Z,56.25
2023-03-19T14:17:24.543Z,48.60
2023-03-19T14:19:53.153Z,48.90
2023-03-19T14:22:36.713Z,50.38
2023-03-19T14:25:05.952Z,45.10
2023-03-19T14:27:33.764Z,40.20
2023-03-19T14:30:03.340Z,44.83
2023-03-19T14:32:35.865Z,47.60
2023-03-19T14:35:05.814Z,42.67
2023-03-19T14:37:39.559Z,40.08
2023-03-19T14:40:15.978Z,46.63
2023-03-19T14:42:43.271Z,41.42
2023-03-19T14:45:14.596Z,41.17
2023-03-19T14:48:11.517Z,40.55
2023-03-19T14:50:56.991Z,42.50
2023-03-19T14:53:39.998Z,39.70
2023-03-19T14:56:12.081Z,40.25
2023-03-19T14:58:47.868Z,39.00
2023-03-19T15:01:15.424Z,38.92
2023-03-19T15:03:43.171Z,36.20
2023-03-19T15:06:13.205Z,36.47
2023-03-19T15:08:41.553Z,34.75
2023-03-19T15:11:21.291Z,38.47
2023-03-19T15:13:57.747Z,34.92
2023-03-19T15:16:48.353Z,40.33
2023-03-19T15:19:18.630Z,34.28
2023-03-19T15:21:48.229Z,39.67
2023-03-19T15:24:16.140Z,34.47
2023-03-19T15:26:44.261Z,32.60
2023-03-19T15:29:13.583Z,31.90
2023-03-19T15:31:51.635Z,37.22
2023-03-19T15:34:22.702Z,27.83
2023-03-19T15:36:53.602Z,30.17
2023-03-19T15:39:22.248Z,26.25
2023-03-19T15:41:50.886Z,26.25
2023-03-19T15:44:21.497Z,34.72
2023-03-19T15:46:49.818Z,31.15
2023-03-19T15:49:27.738Z,37.53
2023-03-19T15:51:58.007Z,34.75
2023-03-19T15:54:25.977Z,35.97
2023-03-19T15:56:53.605Z,34.80
2023-03-19T15:59:22.573Z,33.08
2023-03-19T16:01:51.094Z,39.60
2023-03-19T16:04:29.765Z,38.40
2023-03-19T16:06:58.597Z,34.92
2023-03-19T16:09:33.780Z,35.78
2023-03-19T16:12:01.729Z,34.28
2023-03-19T16:14:34.759Z,32.00
2023-03-19T16:17:12.840Z,38.45
2023-03-19T16:19:52.162Z,36.78
2023-03-19T16:22:24.236Z,38.22
2023-03-19T16:24:53.818Z,40.50
2023-03-19T16:27:22.912Z,38.70
2023-03-19T16:29:57.027Z,37.22
2023-03-19T16:32:26.213Z,37.58
2023-03-19T16:37:39.473Z,42.17
2023-03-19T16:40:10.040Z,33.50
2023-03-19T16:42:39.322Z,40.15
2023-03-19T16:47:34.505Z,40.55
2023-03-19T16:50:02.139Z,32.38
2023-03-19T16:52:29.794Z,38.13
2023-03-19T16:54:57.192Z,32.33
2023-03-19T16:57:24.728Z,34.42
2023-03-19T16:59:52.389Z,39.10
2023-03-19T17:02:19.976Z,36.78
2023-03-19T17:04:47.769Z,39.00
2023-03-19T17:07:15.340Z,37.47
2023-03-19T17:09:42.680Z,37.00
2023-03-19T17:12:17.157Z,37.03
2023-03-19T17:14:47.127Z,37.60
2023-03-19T17:17:18.718Z,39.50
2023-03-19T17:19:46.821Z,39.72
2023-03-19T17:22:14.519Z,41.63
2023-03-19T17:24:42.765Z,41.08
2023-03-19T17:27:11.721Z,39.15
2023-03-19T17:32:08.590Z,38.92
2023-03-19T17:34:36.862Z,42.38
2023-03-19T17:37:05.389Z,43.10
2023-03-19T17:39:33.288Z,45.38
2023-03-19T17:42:00.738Z,44.55
2023-03-19T17:44:28.358Z,46.05
2023-03-19T17:46:56.530Z,36.25
2023-03-19T17:49:24.122Z,32.72
2023-03-19T17:51:51.774Z,39.70
2023-03-19T17:54:19.951Z,34.22
2023-03-19T17:56:48.190Z,29.45
2023-03-19T17:59:15.890Z,24.05
2023-03-19T18:01:43.722Z,36.28
2023-03-19T18:04:15.829Z,28.10
2023-03-19T18:06:45.677Z,32.85
2023-03-19T18:09:23.831Z,28.17
2023-03-19T18:11:51.522Z,28.23
2023-03-19T18:14:19.163Z,30.27
2023-03-19T18:16:46.878Z,28.35
2023-03-19T18:19:19.582Z,28.25
2023-03-19T18:21:46.932Z,23.05
2023-03-19T18:24:14.245Z,28.83
2023-03-19T18:26:41.534Z,22.95
2023-03-19T18:29:09.161Z,20.63
2023-03-19T18:31:37.169Z,21.35
2023-03-19T18:34:06.611Z,19.90
2023-03-19T18:36:34.273Z,17.27
2023-03-19T18:39:01.627Z,19.15
2023-03-19T18:41:29.106Z,14.60
2023-03-19T18:44:05.933Z,17.73
2023-03-19T18:46:39.639Z,19.33
2023-03-19T18:49:16.101Z,20.30
2023-03-19T18:51:58.855Z,18.38
2023-03-19T18:54:30.793Z,18.73
2023-03-19T18:56:58.362Z,19.23
2023-03-19T18:59:26.824Z,18.58
2023-03-19T19:02:17.526Z,17.80
2023-03-19T19:04:45.003Z,17.17
2023-03-19T19:07:14.110Z,19.35
2023-03-19T19:09:41.454Z,18.48
2023-03-19T19:12:09.425Z,17.48
2023-03-19T19:14:36.876Z,19.02
2023-03-19T19:17:04.696Z,17.85
2023-03-19T19:19:32.020Z,21.20
2023-03-19T19:21:59.320Z,22.17
2023-03-19T19:24:26.698Z,36.17
2023-03-19T19:26:54.460Z,24.88
2023-03-19T19:29:24.039Z,23.38
2023-03-19T19:31:52.065Z,18.35
2023-03-19T19:34:19.462Z,15.82
2023-03-19T19:36:46.826Z,16.05
2023-03-19T19:39:14.095Z,16.88
2023-03-19T19:41:43.802Z,18.48
2023-03-19T19:44:20.954Z,23.73
2023-03-19T19:46:48.333Z,18.05
2023-03-19T19:49:15.725Z,19.33
2023-03-19T19:51:43.330Z,19.00
2023-03-19T19:54:10.885Z,21.58
2023-03-19T19:56:39.222Z,24.15
2023-03-19T19:59:08.124Z,20.77
2023-03-19T20:01:35.584Z,25.85
2023-03-19T20:04:04.247Z,16.85
2023-03-19T20:06:31.923Z,20.85
2023-03-19T20:08:59.264Z,23.15
2023-03-19T20:11:27.434Z,22.17
2023-03-19T20:13:55.964Z,22.65
2023-03-19T20:16:24.831Z,21.05
2023-03-19T20:18:53.881Z,18.45
2023-03-19T20:21:22.514Z,18.42
2023-03-19T20:23:53.095Z,22.40
2023-03-19T20:26:21.784Z,17.30
2023-03-19T20:28:49.258Z,19.00
2023-03-19T20:31:17.701Z,19.27
2023-03-19T20:33:45.284Z,20.75
2023-03-19T20:36:16.248Z,22.08
2023-03-19T20:38:43.633Z,19.52
2023-03-19T20:41:16.745Z,18.77
2023-03-19T20:43:44.086Z,26.42
2023-03-19T20:46:11.662Z,26.70
2023-03-19T20:48:39.105Z,25.65
2023-03-19T20:51:07.506Z,21.25
2023-03-19T20:53:37.457Z,19.30
2023-03-19T20:56:04.896Z,21.75
2023-03-19T20:58:35.215Z,24.85
2023-03-19T21:01:02.954Z,25.27
2023-03-19T21:03:31.400Z,19.60
2023-03-19T21:06:01.892Z,21.27
2023-03-19T21:08:43.183Z,21.67
2023-03-19T21:11:17.705Z,18.20
2023-03-19T21:13:49.429Z,22.10
2023-03-19T21:16:23.049Z,23.73
2023-03-19T21:18:54.829Z,26.83
2023-03-19T21:21:35.329Z,21.05
2023-03-19T21:24:06.054Z,22.67
2023-03-19T21:26:38.614Z,21.45
2023-03-19T21:29:31.871Z,22.00
2023-03-19T21:32:01.969Z,14.70
2023-03-19T21:34:31.284Z,22.80
2023-03-19T21:37:01.653Z,18.67
2023-03-19T21:39:32.372Z,21.50
2023-03-19T21:42:02.320Z,17.05
2023-03-19T21:44:31.341Z,16.10
2023-03-19T21:46:58.761Z,18.38
2023-03-19T21:49:26.271Z,13.27
2023-03-19T21:51:53.601Z,14.52
2023-03-19T21:54:21.125Z,14.57
2023-03-19T21:56:48.393Z,16.05
2023-03-19T21:59:17.077Z,13.90
2023-03-19T22:01:44.608Z,24.52
2023-03-19T22:04:12.217Z,10.80
2023-03-19T22:06:42.458Z,13.40
2023-03-19T22:09:09.796Z,16.17
2023-03-19T22:11:38.206Z,11.20
2023-03-19T22:14:26.825Z,14.27
2023-03-19T22:16:55.919Z,10.88
2023-03-19T22:19:23.850Z,15.18
2023-03-19T22:21:51.203Z,12.23
2023-03-19T22:24:18.853Z,13.90
2023-03-19T22:26:49.680Z,12.70
2023-03-19T22:29:19.251Z,14.13
2023-03-19T22:31:49.003Z,20.33
2023-03-19T22:34:18.045Z,17.52
2023-03-19T22:36:48.730Z,18.17
2023-03-19T22:39:16.050Z,19.50
2023-03-19T22:41:45.580Z,16.75
2023-03-19T22:44:33.258Z,18.83
2023-03-19T22:47:02.157Z,16.40
2023-03-19T22:49:29.941Z,21.15
2023-03-19T22:51:58.389Z,16.95
2023-03-19T22:54:26.120Z,22.43
2023-03-19T22:56:53.429Z,19.42
2023-03-19T22:59:20.709Z,16.83
2023-03-19T23:01:48.749Z,13.82
2023-03-19T23:04:16.660Z,20.17
2023-03-19T23:06:44.097Z,18.98
2023-03-19T23:09:19.599Z,21.67
2023-03-19T23:11:48.865Z,20.02
2023-03-19T23:14:28.359Z,20.65
2023-03-19T23:19:26.305Z,23.60
2023-03-19T23:24:21.265Z,18.90
2023-03-19T23:26:49.816Z,19.30
2023-03-19T23:29:24.334Z,19.70
2023-03-19T23:31:52.034Z,21.42
2023-03-19T23:34:19.607Z,23.45
2023-03-19T23:36:47.409Z,24.60
2023-03-19T23:39:15.317Z,19.88
2023-03-19T23:41:48.343Z,21.05
2023-03-19T23:44:16.774Z,14.68
2023-03-19T23:46:44.965Z,14.70
2023-03-19T23:49:15.974Z,26.73
2023-03-19T23:51:43.320Z,19.95
2023-03-19T23:54:33.775Z,18.15
2023-03-19T23:57:02.796Z,13.85
2023-03-19T23:59:31.686Z,20.23
